Home > Products > Valid Products > TAF

000
FTUS42 KTBW 241500 AAA
TAFPIE
TAF AMD
KPIE 241529Z 2415/2512 00000KT P6SM VCTS SCT035CB SCT060
      TEMPO 2415/2416 VRB20G25KT 3SM TSRA BKN030CB
     FM241600 15004KT P6SM VCTS SCT045CB SCT250
     FM241800 23006KT P6SM VCTS SCT045CB SCT250
     FM250000 24006KT P6SM FEW035 SCT100 BKN250
     FM250400 00000KT P6SM FEW010 SCT250=



000
FTUS42 KTBW 241500 AAB
TAFTPA
TAF AMD
KTPA 241505Z 2415/2512 13005KT P6SM VCTS SCT020CB SCT050
     FM241600 23007KT P6SM VCTS SCT045CB SCT250
     FM250000 24005KT P6SM FEW035 SCT100 BKN250
     FM250400 00000KT P6SM FEW010 SCT250=



000
FTUS42 KTBW 241300 AAA
TAFTPA
TAF AMD
KTPA 241400Z 2414/2512 VRB03KT P6SM VCTS SCT020CB SCT050
      TEMPO 2414/2415 BKN020CB
     FM241600 23007KT P6SM VCTS SCT045CB SCT250
     FM250000 24005KT P6SM FEW035 SCT100 BKN250
     FM250400 00000KT P6SM FEW010 SCT250=



000
FTUS42 KTBW 241100
TAFFMY
TAF
KFMY 241136Z 2412/2512 VRB03KT P6SM FEW035 SCT050
     FM241600 19005KT P6SM VCTS SCT040CB SCT250
     FM241800 23007KT P6SM VCTS SCT050CB SCT250
     FM250000 23005KT P6SM FEW035 SCT100 BKN250
     FM250400 00000KT P6SM FEW010 SCT250=



000
FTUS42 KTBW 241100
TAFSRQ
TAF
KSRQ 241136Z 2412/2512 00000KT P6SM VCSH SCT035 SCT050
     FM241600 18005KT P6SM VCTS SCT040CB SCT250
     FM241900 22007KT P6SM VCTS SCT045CB SCT250
     FM250000 23006KT P6SM FEW035 SCT100 BKN250
     FM250400 22004KT P6SM FEW010 SCT250=



000
FTUS42 KTBW 241100
TAFTPA
TAF
KTPA 241136Z 2412/2512 VRB03KT P6SM FEW025 SCT050
     FM241600 23007KT P6SM VCTS SCT045CB SCT250
     FM250000 24005KT P6SM FEW035 SCT100 BKN250
     FM250400 00000KT P6SM FEW010 SCT250=



000
FTUS42 KTBW 241100
TAFPIE
TAF
KPIE 241136Z 2412/2512 00000KT P6SM FEW045 SCT060
     FM241600 15004KT P6SM VCTS SCT045CB SCT250
     FM241800 23006KT P6SM VCTS SCT045CB SCT250
     FM250000 24006KT P6SM FEW035 SCT100 BKN250
     FM250400 00000KT P6SM FEW010 SCT250=



000
FTUS42 KTBW 241100
TAFRSW
TAF
KRSW 241136Z 2412/2512 00000KT P6SM FEW035 SCT050
     FM241600 19005KT P6SM VCTS SCT040CB SCT250
     FM241800 22007KT P6SM VCTS SCT050CB SCT250
     FM250000 21005KT P6SM FEW035 SCT100 BKN250
     FM250400 00000KT P6SM FEW010 SCT250=



000
FTUS42 KTBW 240800 AAA
TAFTPA
TAF AMD
KTPA 240859Z 2409/2506 00000KT P6SM SCT045 SCT250
     FM241400 22005KT P6SM VCSH SCT040 SCT250
     FM241800 24007KT P6SM VCTS SCT045CB SCT250
     FM250000 23004KT P6SM FEW025 SCT250=



000
FTUS42 KTBW 240500
TAFFMY
TAF
KFMY 240531Z 2406/2506 00000KT P6SM SKC
     FM241400 18005KT P6SM SCT025
     FM241800 23007KT P6SM VCTS SCT045CB SCT250
     FM250000 21003KT P6SM FEW035 SCT250=



000
FTUS42 KTBW 240500
TAFPIE
TAF
KPIE 240531Z 2406/2506 00000KT P6SM FEW035 FEW250
     FM241400 14005KT P6SM FEW030
     FM241800 22005KT P6SM VCTS SCT045CB SCT250
     FM250000 24006KT P6SM FEW025 SCT250=



000
FTUS42 KTBW 240500
TAFSRQ
TAF
KSRQ 240531Z 2406/2506 00000KT P6SM FEW030
     FM241400 20005KT P6SM SCT025
     FM241800 23008KT P6SM VCTS SCT045CB SCT250
     FM250000 22004KT P6SM FEW030 SCT250=



000
FTUS42 KTBW 240500
TAFTPA
TAF
KTPA 240531Z 2406/2506 00000KT P6SM FEW035 FEW250
     FM241400 22005KT P6SM SCT025
     FM241800 24007KT P6SM VCTS SCT045CB SCT250
     FM250000 23004KT P6SM FEW025 SCT250=



000
FTUS42 KTBW 240500
TAFRSW
TAF
KRSW 240531Z 2406/2506 00000KT P6SM SKC
     FM241400 17005KT P6SM SCT025
     FM241800 22006KT P6SM VCTS SCT045CB SCT250
     FM250000 21003KT P6SM FEW035 SCT250=



000
FTUS42 KTBW 240200 AAA
TAFTPA
TAF AMD
KTPA 240259Z 2403/2424 VRB03KT P6SM BKN250
     FM240600 23003KT P6SM SCT250
     FM241500 24005KT P6SM FEW050 SCT250
     FM241800 25007KT P6SM VCTS BKN040CB BKN250=



000
FTUS42 KTBW 232300
TAFTPA
TAF
KTPA 232337Z 2400/2424 29007KT P6SM SCT040 BKN250
     FM240100 VRB03KT P6SM SCT250
     FM241500 24005KT P6SM FEW050 SCT250
     FM241800 25007KT P6SM VCTS BKN040CB BKN250=



000
FTUS42 KTBW 232300
TAFFMY
TAF
KFMY 232337Z 2400/2424 02009KT P6SM SCT060 BKN250
     FM240100 VRB03KT P6SM SCT250
     FM241500 19005KT P6SM FEW050 SCT250
     FM241800 23007KT P6SM VCTS BKN040CB BKN250=



000
FTUS42 KTBW 232300
TAFRSW
TAF
KRSW 232337Z 2400/2424 21006KT P6SM SCT060 BKN250
     FM240100 VRB03KT P6SM SCT250
     FM241500 17004KT P6SM FEW050 SCT250
     FM241800 22007KT P6SM VCTS BKN040CB BKN250=



000
FTUS42 KTBW 232300
TAFPIE
TAF
KPIE 232337Z 2400/2424 31007KT P6SM SCT040 BKN250
     FM240100 VRB03KT P6SM SCT250
     FM241500 14005KT P6SM FEW050 SCT250
     FM241800 26007KT P6SM VCTS BKN040CB BKN250=



000
FTUS42 KTBW 232300
TAFSRQ
TAF
KSRQ 232337Z 2400/2424 29008KT P6SM SCT040 BKN250
     FM240100 VRB03KT P6SM SCT250
     FM241500 24006KT P6SM FEW050 SCT250
     FM241800 25009KT P6SM VCTS BKN040CB BKN250=



000
FTUS42 KTBW 232100 AAA
TAFTPA
TAF AMD
KTPA 232100Z 2321/2418 26007KT P6SM VCTS SCT040CB SCT250
     FM240100 VRB03KT P6SM FEW030 SCT250
     FM241400 22006KT P6SM SCT035 SCT250=



000
FTUS42 KTBW 231700 RRA
TAFSRQ
TAF
KSRQ 231743Z 2318/2418 27008KT P6SM VCTS SCT030CB SCT250
     FM240100 VRB03KT P6SM FEW040 SCT250
     FM241400 22006KT P6SM SCT035 SCT250=



000
FTUS42 KTBW 231700 RRA
TAFRSW
TAF
KRSW 231743Z 2318/2418 24005KT P6SM VCTS SCT035CB BKN250
     FM240000 VRB03KT P6SM FEW030 SCT250
     FM241400 22005KT P6SM SCT035 SCT250=



000
FTUS42 KTBW 231700 RRA
TAFPIE
TAF
KPIE 231743Z 2318/2418 04005KT P6SM VCTS SCT040CB SCT250
     FM232000 30008KT P6SM VCTS SCT040CB SCT100 BKN250
     FM240100 VRB03KT P6SM FEW030 SCT250
     FM241400 22006KT P6SM SCT035 SCT250=



000
FTUS42 KTBW 231700 RRA
TAFFMY
TAF
KFMY 231743Z 2318/2418 25005KT P6SM VCTS SCT035CB BKN250
     FM240100 VRB03KT P6SM FEW030 SCT250
     FM241400 21005KT P6SM SCT035 SCT250=



000
FTUS42 KTBW 231700 RRA
TAFTPA
TAF
KTPA 231743Z 2318/2418 26006KT P6SM VCTS SCT040CB SCT250
     FM240100 VRB03KT P6SM FEW030 SCT250
     FM241400 22006KT P6SM SCT035 SCT250=



000
FTUS42 KTBW 231400 AAA
TAFTPA
TAF AMD
KTPA 231451Z 2315/2412 24006KT P6SM SCT025 SCT250
     FM231700 26007KT P6SM VCTS SCT035CB SCT100 BKN250
     FM240000 VRB06KT P6SM FEW035 SCT150=



000
FTUS42 KTBW 231100
TAFTPA
TAF
KTPA 231134Z 2312/2412 VRB04KT P6SM FEW015 SCT250
     FM231500 24006KT P6SM SCT025 SCT250
     FM231700 26007KT P6SM VCTS SCT035CB SCT100 BKN250
     FM240000 VRB06KT P6SM FEW035 SCT150=



000
FTUS42 KTBW 231100
TAFFMY
TAF
KFMY 231134Z 2312/2412 VRB03KT P6SM FEW015 SCT250
     FM231500 VRB04KT P6SM SCT025 SCT250
     FM231700 24005KT P6SM VCTS SCT035CB SCT100 BKN250
     FM240000 VRB06KT P6SM FEW035 SCT150=



000
FTUS42 KTBW 231100
TAFRSW
TAF
KRSW 231134Z 2312/2412 VRB03KT P6SM FEW015 SCT250
     FM231500 VRB04KT P6SM SCT025 SCT250
     FM231700 24005KT P6SM VCTS SCT035CB SCT100 BKN250
     FM240000 VRB06KT P6SM SCT035 BKN150=



000
FTUS42 KTBW 231100
TAFSRQ
TAF
KSRQ 231134Z 2312/2412 VRB04KT P6SM VCSH FEW015 SCT250
     FM231500 25006KT P6SM SCT025 SCT250
     FM231700 27009KT P6SM VCTS SCT035CB SCT100 BKN250
     FM240000 VRB06KT P6SM FEW050 SCT150=



000
FTUS42 KTBW 231100
TAFPIE
TAF
KPIE 231134Z 2312/2412 VRB04KT P6SM FEW015 SCT250
     FM231500 04005KT P6SM SCT025 SCT250
     FM231700 VRB05KT P6SM VCTS SCT035CB SCT100 BKN250
     FM232000 30007KT P6SM VCTS SCT040CB SCT100 BKN250
     FM240000 VRB06KT P6SM FEW050 SCT150=



000
FTUS42 KTBW 230900 AAA
TAFTPA
TAF AMD
KTPA 230905Z 2309/2406 VRB03KT P6SM FEW030 SCT250
     FM231300 VRB04KT P6SM FEW015 SCT250
     FM231500 24006KT P6SM SCT025 SCT250
     FM231700 26007KT P6SM VCTS SCT035CB SCT100 BKN250
     FM240000 VRB06KT P6SM FEW035 SCT150=



000
FTUS42 KTBW 230700 AAB
TAFRSW
TAF AMD
KRSW 230704Z 2307/2406 VRB03KT 6SM BR FEW001 SCT250
     FM230900 VRB03KT P6SM VCSH FEW015 SCT250
     FM231500 VRB04KT P6SM SCT025 SCT250
     FM231700 24005KT P6SM VCTS SCT035CB SCT100 BKN250
     FM240000 VRB06KT P6SM SCT035 BKN150=



000
FTUS42 KTBW 230600 AAA
TAFFMY
TAF AMD
KFMY 230609Z 2306/2406 VRB03KT 6SM BR FEW001 SCT250
     FM230900 VRB03KT P6SM VCSH FEW015 SCT250
     FM231500 VRB04KT P6SM SCT025 SCT250
     FM231700 24005KT P6SM VCTS SCT035CB SCT100 BKN250
     FM240000 VRB06KT P6SM FEW035 SCT150=



000
FTUS42 KTBW 230600 AAA
TAFRSW
TAF AMD
KRSW 230608Z 2306/2406 VRB03KT P6SM FEW001 SCT250
      TEMPO 2306/2308 5SM BR SCT001
     FM230900 VRB03KT P6SM VCSH FEW015 SCT250
     FM231500 VRB04KT P6SM SCT025 SCT250
     FM231700 24005KT P6SM VCTS SCT035CB SCT100 BKN250
     FM240000 VRB06KT P6SM SCT035 BKN150=



000
FTUS42 KTBW 230500
TAFTPA
TAF
KTPA 230526Z 2306/2406 VRB03KT P6SM FEW030 SCT150 SCT250
     FM231300 VRB04KT P6SM FEW015 SCT250
     FM231500 24006KT P6SM SCT025 SCT250
     FM231700 26007KT P6SM VCTS SCT035CB SCT100 BKN250
     FM240000 VRB06KT P6SM FEW035 SCT150=



000
FTUS42 KTBW 230500
TAFRSW
TAF
KRSW 230526Z 2306/2406 VRB03KT P6SM SCT250
     FM230900 VRB03KT P6SM VCSH FEW015 SCT250
     FM231500 VRB04KT P6SM SCT025 SCT250
     FM231700 24005KT P6SM VCTS SCT035CB SCT100 BKN250
     FM240000 VRB06KT P6SM SCT035 BKN150=



000
FTUS42 KTBW 230500
TAFSRQ
TAF
KSRQ 230526Z 2306/2406 VRB03KT P6SM SCT250
     FM230900 VRB04KT P6SM VCSH FEW015 SCT250
     FM231500 25006KT P6SM SCT025 SCT250
     FM231700 27009KT P6SM VCTS SCT035CB SCT100 BKN250
     FM240000 VRB06KT P6SM FEW050 SCT150=



000
FTUS42 KTBW 230500
TAFPIE
TAF
KPIE 230526Z 2306/2406 VRB04KT P6SM SCT025 SCT250
     FM231300 07004KT P6SM FEW015 SCT250
     FM231500 04005KT P6SM SCT025 SCT250
     FM231700 VRB05KT P6SM VCTS SCT035CB SCT100 BKN250
     FM232000 30007KT P6SM VCTS SCT040CB SCT100 BKN250
     FM240000 VRB06KT P6SM FEW050 SCT150=



000
FTUS42 KTBW 230500
TAFFMY
TAF
KFMY 230526Z 2306/2406 VRB03KT P6SM SCT250
     FM230900 VRB03KT P6SM VCSH FEW015 SCT250
     FM231500 VRB04KT P6SM SCT025 SCT250
     FM231700 24005KT P6SM VCTS SCT035CB SCT100 BKN250
     FM240000 VRB06KT P6SM FEW035 SCT150=



000
FTUS42 KTBW 230400 AAB
TAFPIE
TAF AMD
KPIE 230401Z 2304/2324 VRB04KT P6SM SCT025 SCT250
     FM231300 07004KT P6SM FEW015 SCT250
     FM231500 04005KT P6SM SCT025 SCT250
     FM231700 VRB05KT P6SM VCTS SCT035CB SCT100 BKN250
     FM232000 30007KT P6SM VCTS SCT040CB SCT100 BKN250=



000
FTUS42 KTBW 230300 AAA
TAFTPA
TAF AMD
KTPA 230305Z 2303/2324 VRB03KT P6SM FEW030 SCT150 SCT250
     FM231300 VRB04KT P6SM FEW015 SCT250
     FM231500 24006KT P6SM SCT025 SCT250
     FM231700 26007KT P6SM VCTS SCT035CB SCT100 BKN250=



000
FTUS42 KTBW 230200 AAA
TAFPIE
TAF AMD
KPIE 230253Z 2303/2324 VRB04KT P6SM SCT025 SCT250
      TEMPO 2303/2305 BKN025
     FM231300 07004KT P6SM FEW015 SCT250
     FM231500 04005KT P6SM SCT025 SCT250
     FM231700 VRB05KT P6SM VCTS SCT035CB SCT100 BKN250
     FM232000 30007KT P6SM VCTS SCT040CB SCT100 BKN250=



000
FTUS42 KTBW 222300
TAFFMY
TAF
KFMY 222338Z 2300/2324 VRB04KT P6SM SCT130 BKN250
     FM230400 VRB03KT P6SM SCT250
     FM231300 VRB03KT P6SM FEW015 SCT250
     FM231500 VRB04KT P6SM SCT025 SCT250
     FM231700 24005KT P6SM VCTS SCT035CB SCT100 BKN250=



000
FTUS42 KTBW 222300
TAFPIE
TAF
KPIE 222338Z 2300/2324 35005KT P6SM SCT130 BKN250
     FM230400 VRB03KT P6SM SCT250
     FM231300 07004KT P6SM FEW015 SCT250
     FM231500 04005KT P6SM SCT025 SCT250
     FM231700 VRB05KT P6SM VCTS SCT035CB SCT100 BKN250
     FM232000 30007KT P6SM VCTS SCT040CB SCT100 BKN250=



000
FTUS42 KTBW 222300
TAFSRQ
TAF
KSRQ 222338Z 2300/2324 VRB04KT P6SM SCT130 BKN250
     FM230400 VRB03KT P6SM SCT250
     FM231300 VRB04KT P6SM FEW015 SCT250
     FM231500 25006KT P6SM SCT025 SCT250
     FM231700 27009KT P6SM VCTS SCT035CB SCT100 BKN250=



000
FTUS42 KTBW 222300
TAFRSW
TAF
KRSW 222338Z 2300/2324 VRB04KT P6SM SCT130 BKN250
     FM230400 VRB03KT P6SM SCT250
     FM231300 VRB03KT P6SM FEW015 SCT250
     FM231500 VRB04KT P6SM SCT025 SCT250
     FM231700 24005KT P6SM VCTS SCT035CB SCT100 BKN250=



000
FTUS42 KTBW 222300
TAFTPA
TAF
KTPA 222338Z 2300/2324 VRB03KT P6SM SCT130 BKN250
     FM230400 VRB03KT P6SM SCT250
     FM231300 VRB04KT P6SM FEW015 SCT250
     FM231500 24006KT P6SM SCT025 SCT250
     FM231700 26007KT P6SM VCTS SCT035CB SCT100 BKN250=



000
FTUS42 KTBW 222100 AAA
TAFTPA
TAF AMD
KTPA 222108Z 2221/2318 28006KT P6SM SCT040 SCT130 BKN250
     FM230100 VRB03KT P6SM FEW040 SCT130 BKN250
     FM231400 22005KT P6SM SCT020 SCT250=



000
FTUS42 KTBW 221900 AAA
TAFRSW
TAF AMD
KRSW 221924Z 2219/2318 25006KT P6SM VCTS SCT040CB BKN100
      TEMPO 2219/2221 5SM -RA BKN040
     FM222100 25006KT P6SM SCT040 SCT130 BKN250
     FM230100 VRB03KT P6SM SCT035 BKN250
     FM231400 19005KT P6SM SCT020 SCT250=



000
FTUS42 KTBW 221900 AAA
TAFFMY
TAF AMD
KFMY 221924Z 2219/2318 25006KT P6SM VCTS SCT040CB BKN100
      TEMPO 2219/2221 5SM -RA BKN040
     FM222100 25006KT P6SM SCT040 SCT130 BKN250
     FM230100 VRB03KT P6SM SCT035 BKN250
     FM231400 19005KT P6SM SCT020 SCT250=



000
FTUS42 KTBW 221800 AAA
TAFPIE
TAF AMD
KPIE 221856Z 2219/2318 06006KT P6SM VCTS SCT035CB BKN100
      TEMPO 2219/2220 VRB15G25KT 2SM +TSRA BKN030CB
     FM222000 31007KT P6SM VCTS SCT030CB SCT080 BKN250
     FM230100 VRB03KT P6SM SCT035 BKN250
     FM231400 05005KT P6SM SCT020 SCT250=



000
FTUS42 KTBW 221700
TAFSRQ
TAF
KSRQ 221739Z 2218/2318 26008KT P6SM VCTS SCT025CB SCT250
     FM230100 VRB03KT P6SM SCT035 BKN250
     FM231400 24005KT P6SM SCT020 SCT250=



000
FTUS42 KTBW 221700
TAFRSW
TAF
KRSW 221739Z 2218/2318 23009KT 3SM TSRA BKN030CB BKN060
      TEMPO 2218/2219 VRB15G25KT 1/2SM +TSRA FG BKN020CB
     FM222000 26006KT P6SM VCTS SCT035CB BKN060 BKN250
     FM230100 VRB03KT P6SM SCT035 BKN250
     FM231400 19005KT P6SM SCT020 SCT250=



000
FTUS42 KTBW 221700
TAFPIE
TAF
KPIE 221739Z 2218/2318 06006KT P6SM VCTS SCT020CB SCT250
     FM222000 31007KT P6SM VCTS SCT030CB SCT080 BKN250
     FM230100 VRB03KT P6SM SCT035 BKN250
     FM231400 05005KT P6SM SCT020 SCT250=



000
FTUS42 KTBW 221700
TAFTPA
TAF
KTPA 221739Z 2218/2318 25006KT P6SM VCTS SCT025CB SCT250
     FM230100 VRB03KT P6SM SCT035 BKN250
     FM231400 22005KT P6SM SCT020 SCT250=



000
FTUS42 KTBW 221700
TAFFMY
TAF
KFMY 221739Z 2218/2318 27006KT P6SM VCTS SCT035CB BKN060 BKN250
      TEMPO 2218/2220 VRB15G25KT 3SM TSRA BKN030CB
     FM230100 VRB03KT P6SM SCT035 BKN250
     FM231400 19005KT P6SM SCT020 SCT250=



000
FTUS42 KTBW 221600 AAD
TAFRSW
TAF AMD
KRSW 221652Z 2217/2312 25006KT P6SM VCTS SCT030CB SCT100 BKN250
      TEMPO 2217/2218 VRB15G25KT 2SM TSRA BKN025CB
     FM230200 VRB03KT P6SM SCT030 BKN150=



000
FTUS42 KTBW 221400 AAA
TAFTPA
TAF AMD
KTPA 221458Z 2215/2312 22006KT P6SM SCT015 BKN250
     FM221700 27007KT P6SM VCTS SCT040CB SCT100 BKN250
     FM230100 VRB03KT P6SM SCT035 BKN150=



000
FTUS42 KTBW 221300 AAC
TAFRSW
TAF AMD
KRSW 221312Z 2213/2312 VRB03KT P6SM SCT003
     FM221400 VRB04KT P6SM FEW005 SCT025 BKN250
     FM221700 25006KT P6SM VCTS SCT035CB SCT100 BKN250
     FM230200 VRB03KT P6SM SCT030 BKN150=



000
FTUS42 KTBW 221300 AAB
TAFRSW
TAF AMD
KRSW 221308Z 2213/2312 VRB03KT P6SM BKN003
     FM221400 VRB04KT P6SM FEW005 SCT025 BKN250
     FM221700 25006KT P6SM VCTS SCT035CB SCT100 BKN250
     FM230200 VRB03KT P6SM SCT030 BKN150=



000
FTUS42 KTBW 221200 AAA
TAFRSW
TAF AMD
KRSW 221247Z 2213/2312 VRB02KT 3SM BR BKN002
     FM221300 VRB04KT P6SM FEW005 SCT025 BKN250
     FM221700 25006KT P6SM VCTS SCT035CB SCT100 BKN250
     FM230200 VRB03KT P6SM SCT030 BKN150=



000
FTUS42 KTBW 221100
TAFTPA
TAF
KTPA 221136Z 2212/2312 VRB04KT P6SM FEW020 SCT250
     FM221500 24005KT P6SM SCT035 BKN250
     FM221700 27007KT P6SM VCTS SCT040CB SCT100 BKN250
     FM230100 VRB03KT P6SM SCT035 BKN150=



000
FTUS42 KTBW 221100
TAFFMY
TAF
KFMY 221136Z 2212/2312 VRB03KT P6SM FEW006 SCT250
     FM221400 VRB04KT P6SM SCT025 BKN250
     FM221700 25006KT P6SM VCTS SCT035CB SCT100 BKN250
     FM230200 VRB03KT P6SM SCT030 BKN150=



000
FTUS42 KTBW 221100
TAFSRQ
TAF
KSRQ 221136Z 2212/2312 11004KT P6SM FEW020 SCT250
     FM221500 25007KT P6SM SCT035 BKN250
     FM221700 28008KT P6SM VCTS SCT040CB SCT100 BKN250
     FM230100 VRB03KT P6SM SCT035 BKN150=



000
FTUS42 KTBW 221100
TAFRSW
TAF
KRSW 221136Z 2212/2312 VRB03KT 2SM BR BKN007 BKN250
      TEMPO 2212/2213 1/4SM FG VV002
     FM221300 VRB04KT P6SM SCT025 BKN250
     FM221700 25006KT P6SM VCTS SCT035CB SCT100 BKN250
     FM230200 VRB03KT P6SM SCT030 BKN150=



000
FTUS42 KTBW 221100
TAFPIE
TAF
KPIE 221136Z 2212/2312 VRB04KT P6SM FEW020 SCT250
     FM221500 VRB05KT P6SM SCT035 BKN250
     FM221700 VRB06KT P6SM VCTS SCT040CB SCT100 BKN250
     FM222000 31006KT P6SM VCTS SCT040CB SCT100 BKN250
     FM230100 VRB04KT P6SM SCT035 BKN150=



000
FTUS42 KTBW 220900 AAB
TAFFMY
TAF AMD
KFMY 220917Z 2209/2306 VRB03KT P6SM FEW005 SCT130 BKN250
     FM221400 VRB04KT P6SM SCT025 BKN250
     FM221700 25006KT P6SM VCTS SCT035CB SCT100 BKN250
     FM230200 VRB03KT P6SM SCT030 BKN150=



000
FTUS42 KTBW 220800 AAB
TAFRSW
TAF AMD
KRSW 220856Z 2209/2306 VRB03KT P6SM FEW005 SCT015 BKN250
     FM221400 VRB04KT P6SM SCT025 BKN250
     FM221700 25006KT P6SM VCTS SCT035CB SCT100 BKN250
     FM230200 VRB03KT P6SM SCT030 BKN150=



000
FTUS42 KTBW 220800 AAA
TAFTPA
TAF AMD
KTPA 220855Z 2209/2306 VRB04KT P6SM FEW020 BKN250
     FM221500 24005KT P6SM SCT035 BKN250
     FM221700 27007KT P6SM VCTS SCT040CB SCT100 BKN250
     FM230100 VRB03KT P6SM SCT035 BKN150=



000
FTUS42 KTBW 220700 AAA
TAFFMY
TAF AMD
KFMY 220743Z 2208/2306 VRB03KT P6SM FEW005 SCT130 BKN250
      TEMPO 2208/2210 BKN005
     FM221400 VRB04KT P6SM SCT025 BKN250
     FM221700 25006KT P6SM VCTS SCT035CB SCT100 BKN250
     FM230200 VRB03KT P6SM SCT030 BKN150=



000
FTUS42 KTBW 220700 AAA
TAFRSW
TAF AMD
KRSW 220715Z 2207/2306 VRB03KT P6SM FEW005 SCT130 BKN250
      TEMPO 2207/2209 BKN005
     FM221400 VRB04KT P6SM SCT025 BKN250
     FM221700 25006KT P6SM VCTS SCT035CB SCT100 BKN250
     FM230200 VRB03KT P6SM SCT030 BKN150=



000
FTUS42 KTBW 220500
TAFPIE
TAF
KPIE 220534Z 2206/2306 VRB04KT P6SM SCT130 BKN250
     FM221200 VRB04KT P6SM FEW020 BKN250
     FM221500 VRB05KT P6SM SCT035 BKN250
     FM221700 VRB06KT P6SM VCTS SCT040CB SCT100 BKN250
     FM222000 31006KT P6SM VCTS SCT040CB SCT100 BKN250
     FM230100 VRB04KT P6SM SCT035 BKN150=



000
FTUS42 KTBW 220500
TAFSRQ
TAF
KSRQ 220534Z 2206/2306 VRB03KT P6SM SCT130 BKN250
     FM221200 09004KT P6SM FEW020 BKN250
     FM221500 25007KT P6SM SCT035 BKN250
     FM221700 28008KT P6SM VCTS SCT040CB SCT100 BKN250
     FM230100 VRB03KT P6SM SCT035 BKN150=



000
FTUS42 KTBW 220500
TAFTPA
TAF
KTPA 220534Z 2206/2306 VRB05KT P6SM FEW035 SCT130 BKN250
     FM221200 VRB04KT P6SM FEW020 BKN250
     FM221500 24005KT P6SM SCT035 BKN250
     FM221700 27007KT P6SM VCTS SCT040CB SCT100 BKN250
     FM230100 VRB03KT P6SM SCT035 BKN150=



000
FTUS42 KTBW 220500
TAFFMY
TAF
KFMY 220534Z 2206/2306 VRB03KT P6SM SCT130 BKN250
     FM221400 VRB04KT P6SM SCT025 BKN250
     FM221700 25006KT P6SM VCTS SCT035CB SCT100 BKN250
     FM230200 VRB03KT P6SM SCT030 BKN150=



000
FTUS42 KTBW 220500
TAFRSW
TAF
KRSW 220534Z 2206/2306 VRB03KT P6SM SCT130 BKN250
     FM221400 VRB04KT P6SM SCT025 BKN250
     FM221700 25006KT P6SM VCTS SCT035CB SCT100 BKN250
     FM230200 VRB03KT P6SM SCT030 BKN150=



000
FTUS42 KTBW 220300 AAA
TAFTPA
TAF AMD
KTPA 220307Z 2203/2224 VRB03KT P6SM FEW035 SCT130 BKN250
     FM221200 VRB03KT P6SM FEW020 BKN250
     FM221500 24005KT P6SM SCT035 BKN250
     FM221700 27007KT P6SM VCTS SCT040CB SCT100 BKN250=



000
FTUS42 KTBW 212300
TAFTPA
TAF
KTPA 212338Z 2200/2224 VRB05KT P6SM VCTS SCT040CB BKN100
      TEMPO 2200/2202 3SM TSRA BKN030CB
     FM220300 VRB03KT P6SM SCT130 BKN250
     FM221200 VRB03KT P6SM FEW020 BKN250
     FM221500 24005KT P6SM SCT035 BKN250
     FM221700 27007KT P6SM VCTS SCT040CB SCT100 BKN250=



000
FTUS42 KTBW 212300
TAFFMY
TAF
KFMY 212338Z 2200/2224 VRB05KT P6SM VCTS SCT040CB BKN130
     FM220200 VRB03KT P6SM SCT130 BKN250
     FM221400 VRB04KT P6SM SCT025 BKN250
     FM221700 26006KT P6SM VCTS SCT035CB SCT100 BKN250=



000
FTUS42 KTBW 212300
TAFSRQ
TAF
KSRQ 212338Z 2200/2224 VRB05KT P6SM VCTS SCT035CB BKN100
      TEMPO 2200/2202 VRB13G20KT 3SM TSRA BKN030CB
     FM220300 VRB03KT P6SM SCT130 BKN250
     FM221200 09004KT P6SM FEW020 BKN250
     FM221500 25007KT P6SM SCT035 BKN250
     FM221700 28008KT P6SM VCTS SCT040CB SCT100 BKN250=



000
FTUS42 KTBW 212300
TAFRSW
TAF
KRSW 212338Z 2200/2224 VRB05KT P6SM VCTS SCT040CB BKN130
     FM220200 VRB03KT P6SM SCT130 BKN250
     FM221400 VRB04KT P6SM SCT025 BKN250
     FM221700 26006KT P6SM VCTS SCT035CB SCT100 BKN250=



000
FTUS42 KTBW 212300
TAFPIE
TAF
KPIE 212338Z 2200/2224 VRB05KT P6SM VCTS SCT040CB BKN100
      TEMPO 2200/2202 3SM TSRA BKN030CB
     FM220300 VRB04KT P6SM SCT130 BKN250
     FM221200 09004KT P6SM FEW020 BKN250
     FM221500 04006KT P6SM SCT035 BKN250
     FM221700 VRB05KT P6SM VCTS SCT040CB SCT100 BKN250
     FM222000 33006KT P6SM VCTS SCT040CB SCT100 BKN250=



000
FTUS42 KTBW 212300 AAB
TAFTPA
TAF AMD
KTPA 212314Z 2123/2218 VRB05KT P6SM VCTS SCT040CB SCT130 BKN250
      TEMPO 2123/2124 VRB13G20KT 2SM TSRA BKN030CB
     FM220200 VRB04KT P6SM SCT045 BKN200
     FM221200 10005KT P6SM VCTS SCT035CB BKN250
     FM221700 24006KT P6SM VCTS SCT025CB BKN250=



000
FTUS42 KTBW 212200 AAB
TAFRSW
TAF AMD
KRSW 212247Z 2123/2218 08008KT P6SM VCTS SCT035CB BKN080
      TEMPO 2123/2124 4SM TSRA BKN030CB
     FM220200 VRB04KT P6SM SCT050 BKN100
     FM221400 22004KT P6SM VCTS SCT035CB BKN250=



000
FTUS42 KTBW 212100 AAA
TAFTPA
TAF AMD
KTPA 212109Z 2121/2218 30009KT P6SM VCTS SCT040CB SCT130 BKN250
     FM220000 VRB04KT P6SM SCT045 BKN200
     FM221200 10005KT P6SM VCTS SCT035CB BKN250
     FM221700 24006KT P6SM VCTS SCT025CB BKN250=



000
FTUS42 KTBW 212000 CCA
TAFRSW
TAF COR
KRSW 212017Z 2120/2218 27007KT P6SM VCTS SCT035CB BKN080
      TEMPO 2120/2122 VRB15G25KT 1SM +TSRA BKN030CB
     FM220200 VRB04KT P6SM SCT050 BKN100
     FM221400 22004KT P6SM VCTS SCT035CB BKN250=



000
FTUS42 KTBW 212000 AAA
TAFRSW
TAF AMD
KRSW 212009Z 2120/2218 27007KT P6SM VCTS SCT035CB BKN080
      TEMPO 2120/2123 VRB15G25KT 3SM TSRA BKN030CB
     FM220200 VRB04KT P6SM SCT050 BKN100
     FM221400 22004KT P6SM VCTS SCT035CB BKN250=



000
FTUS42 KTBW 212000 AAA
TAFFMY
TAF AMD
KFMY 212008Z 2120/2218 30007KT P6SM VCTS SCT035CB BKN080
      TEMPO 2120/2123 VRB15G25KT 3SM TSRA BKN030CB
     FM220200 VRB04KT P6SM SCT050 BKN100
     FM221400 23005KT P6SM VCTS SCT035CB BKN250=



000
FTUS42 KTBW 212000 AAA
TAFSRQ
TAF AMD
KSRQ 212006Z 2120/2218 29010KT P6SM VCTS SCT035CB BKN130
     FM220100 VRB05KT P6SM SCT045 BKN250
     FM221200 08004KT P6SM VCTS SCT035CB BKN250
     FM221600 26008KT P6SM VCTS SCT025CB=



000
FTUS42 KTBW 211900 AAB
TAFPIE
TAF AMD
KPIE 211937Z 2120/2218 16007KT 6SM -RA SCT035 BKN080 BKN250
     FM212000 32009KT P6SM VCTS SCT035CB BKN200
     FM220000 VRB04KT P6SM SCT045 BKN250
     FM221200 09005KT P6SM VCTS SCT035CB BKN250
     FM221600 24006KT P6SM VCTS SCT025CB BKN250=



000
FTUS42 KTBW 211900 AAA
TAFPIE
TAF AMD
KPIE 211911Z 2119/2218 04006KT 3SM TSRA SCT035CB BKN080 BKN250
     FM212000 32009KT P6SM VCTS SCT035CB BKN200
     FM220000 VRB04KT P6SM SCT045 BKN250
     FM221200 09005KT P6SM VCTS SCT035CB BKN250
     FM221600 24006KT P6SM VCTS SCT025CB BKN250=



000
FTUS42 KTBW 211700
TAFFMY
TAF
KFMY 211738Z 2118/2218 26004KT P6SM SCT035 SCT250
     FM212100 32007KT P6SM VCTS BKN035CB BKN250
     FM220200 VRB04KT P6SM SCT050 BKN100
     FM221400 23005KT P6SM VCTS SCT035CB BKN250=



000
FTUS42 KTBW 211700
TAFPIE
TAF
KPIE 211738Z 2118/2218 04006KT P6SM SCT035 BKN250
     FM212100 32009KT P6SM VCTS SCT035CB BKN200
     FM220000 VRB04KT P6SM SCT045 BKN250
     FM221200 09005KT P6SM VCTS SCT035CB BKN250
     FM221600 24006KT P6SM VCTS SCT025CB BKN250=



000
FTUS42 KTBW 211700
TAFTPA
TAF
KTPA 211738Z 2118/2218 25005KT P6SM SCT035 BKN250
     FM212000 32009KT P6SM VCTS SCT035CB BKN200
     FM220000 VRB04KT P6SM SCT045 BKN200
     FM221200 10005KT P6SM VCTS SCT035CB BKN250
     FM221700 24006KT P6SM VCTS SCT025CB BKN250=



000
FTUS42 KTBW 211700
TAFRSW
TAF
KRSW 211738Z 2118/2218 24004KT P6SM SCT035 SCT250
     FM212100 31006KT P6SM VCTS SCT035CB BKN050
     FM220200 VRB04KT P6SM SCT050 BKN100
     FM221400 22004KT P6SM VCTS SCT035CB BKN250=



000
FTUS42 KTBW 211700
TAFSRQ
TAF
KSRQ 211738Z 2118/2218 29007KT P6SM SCT035 BKN250
     FM212200 34008KT P6SM VCTS BKN035CB BKN100
     FM220100 VRB05KT P6SM SCT045 BKN250
     FM221200 08004KT P6SM VCTS SCT035CB BKN250
     FM221600 26008KT P6SM VCTS SCT025CB=



    US Dept of Commerce
    National Oceanic and Atmospheric Administration
    National Weather Service
    1325 East West Highway
    Silver Spring, MD 20910
    Page Author: NWS Internet Services Team
Disclaimer
Information Quality
Credits
Glossary
Privacy Policy
Freedom of Information Act (FOIA)
About Us
Career Opportunities